Time;durP1;ratioP1;P1;durP2;ratioP2;P2;SDS_P1;SDS_P2;PMS_P1;PMS_P2;Temp;Humidity;BMP_temperature;BMP_pressure;BME280_temperature;BME280_humidity;BME280_pressure;Samples;Min_cycle;Max_cycle;Signal;HPM_P1;HPM_P2
2021/03/07 00:01:39;;;;;;;0.80;0.80;;;20.00;41.20;;;;;;5072210;28;20545;-71
2021/03/07 00:04:05;;;;;;;1.00;0.60;;;20.00;41.60;;;;;;5075342;28;20496;-71
2021/03/07 00:06:31;;;;;;;0.60;0.60;;;20.00;41.60;;;;;;5069298;28;20486;-71
2021/03/07 00:08:58;;;;;;;3.70;0.93;;;20.00;41.40;;;;;;5075446;28;20489;-71
2021/03/07 00:11:24;;;;;;;0.80;0.60;;;20.10;41.20;;;;;;5070770;28;21329;-71
2021/03/07 00:13:50;;;;;;;0.50;0.50;;;20.10;41.20;;;;;;5071992;28;20485;-71
2021/03/07 00:16:16;;;;;;;0.83;0.83;;;20.10;41.30;;;;;;5064873;28;20484;-71
2021/03/07 00:18:43;;;;;;;2.17;0.63;;;20.00;41.50;;;;;;5073020;28;20561;-71
2021/03/07 00:21:10;;;;;;;1.80;0.60;;;20.00;41.40;;;;;;5071425;28;20972;-72
2021/03/07 00:23:36;;;;;;;0.77;0.70;;;20.00;41.40;;;;;;5070175;28;20489;-71
2021/03/07 00:26:02;;;;;;;0.70;0.70;;;20.00;41.30;;;;;;5069303;28;21518;-71
2021/03/07 00:28:29;;;;;;;0.80;0.80;;;20.00;41.50;;;;;;5086855;27;20479;-71
2021/03/07 00:30:55;;;;;;;1.33;1.23;;;20.00;41.50;;;;;;5074941;27;20592;-72
2021/03/07 00:33:21;;;;;;;0.80;0.60;;;20.00;41.50;;;;;;5072564;28;20506;-71
2021/03/07 00:35:48;;;;;;;0.70;0.60;;;20.00;41.30;;;;;;5072476;28;20481;-71
2021/03/07 00:38:14;;;;;;;2.13;0.70;;;20.00;41.40;;;;;;5055578;28;20481;-71
2021/03/07 00:40:40;;;;;;;0.70;0.70;;;20.00;41.30;;;;;;5081575;27;20551;-72
2021/03/07 00:43:07;;;;;;;2.77;0.70;;;19.90;41.40;;;;;;5081077;27;20476;-71
2021/03/07 00:45:33;;;;;;;0.80;0.80;;;19.90;41.60;;;;;;5069173;28;20562;-72
2021/03/07 00:47:59;;;;;;;1.43;0.73;;;19.90;42.40;;;;;;5068337;28;20494;-72
2021/03/07 00:50:26;;;;;;;0.60;0.60;;;19.90;41.50;;;;;;5068182;28;21616;-72
2021/03/07 00:52:53;;;;;;;0.90;0.70;;;19.90;41.40;;;;;;5068263;28;20486;-72
2021/03/07 00:55:19;;;;;;;0.60;0.60;;;19.90;41.50;;;;;;5068406;28;21643;-71
2021/03/07 00:57:45;;;;;;;0.60;0.60;;;19.90;41.40;;;;;;5069944;28;20490;-71
2021/03/07 01:00:13;;;;;;;1.03;0.90;;;19.90;41.30;;;;;;5070680;28;20503;-71
2021/03/07 01:02:39;;;;;;;0.60;0.50;;;19.90;41.30;;;;;;5067682;28;20473;-71
2021/03/07 01:05:06;;;;;;;1.07;0.50;;;19.90;41.30;;;;;;5072000;28;20496;-71
2021/03/07 01:07:32;;;;;;;1.40;0.70;;;19.90;41.40;;;;;;5089490;27;20491;-71
2021/03/07 01:10:00;;;;;;;0.60;0.50;;;19.90;41.40;;;;;;5072017;27;20477;-72
2021/03/07 01:12:26;;;;;;;1.90;1.10;;;19.90;41.70;;;;;;5071518;28;20849;-72
2021/03/07 01:14:52;;;;;;;0.67;0.67;;;19.90;41.60;;;;;;5066640;28;20489;-70
2021/03/07 01:17:18;;;;;;;0.60;0.60;;;19.90;41.40;;;;;;5067717;28;21019;-72
2021/03/07 01:19:44;;;;;;;2.07;0.70;;;19.90;41.40;;;;;;5074707;27;21038;-71
2021/03/07 01:22:11;;;;;;;0.60;0.60;;;19.90;41.50;;;;;;5084878;27;20481;-72
2021/03/07 01:24:37;;;;;;;1.00;0.63;;;19.90;41.40;;;;;;5070415;28;20492;-71
2021/03/07 01:27:05;;;;;;;0.80;0.80;;;19.90;41.40;;;;;;5068119;28;20482;-72
2021/03/07 01:29:31;;;;;;;0.50;0.50;;;19.90;41.30;;;;;;5069076;28;20489;-72
2021/03/07 01:31:57;;;;;;;0.93;0.70;;;19.90;41.30;;;;;;5067098;28;20539;-73
2021/03/07 01:34:24;;;;;;;0.50;0.50;;;19.90;41.30;;;;;;5071456;28;20482;-72
2021/03/07 01:36:50;;;;;;;0.50;0.50;;;19.90;41.50;;;;;;5070319;28;20565;-73
2021/03/07 01:39:16;;;;;;;0.60;0.60;;;19.90;41.40;;;;;;5072255;28;20515;-72
2021/03/07 01:41:42;;;;;;;0.77;0.77;;;19.90;41.50;;;;;;5074274;28;20534;-74
2021/03/07 01:44:09;;;;;;;0.60;0.60;;;19.90;41.40;;;;;;5090200;27;20491;-72
2021/03/07 01:46:36;;;;;;;0.77;0.77;;;19.90;41.40;;;;;;5069308;28;20472;-73
2021/03/07 01:49:02;;;;;;;0.60;0.60;;;19.90;41.30;;;;;;5068635;28;20868;-72
2021/03/07 01:51:28;;;;;;;0.80;0.60;;;19.90;41.10;;;;;;5068662;28;20528;-73
2021/03/07 01:53:54;;;;;;;1.13;0.50;;;19.90;41.10;;;;;;5067259;27;20484;-73
2021/03/07 01:56:20;;;;;;;0.87;0.60;;;19.90;41.20;;;;;;5090391;27;20507;-73
2021/03/07 01:58:47;;;;;;;0.70;0.70;;;19.90;41.10;;;;;;5068116;28;20478;-73
2021/03/07 02:01:14;;;;;;;0.70;0.70;;;19.90;41.40;;;;;;5071087;28;20484;-73
2021/03/07 02:03:49;;;;;;;0.60;0.60;;;19.90;41.40;;;;;;5074969;27;20479;-72
2021/03/07 02:06:16;;;;;;;0.63;0.63;;;19.90;41.30;;;;;;5067572;28;20508;-73
2021/03/07 02:08:42;;;;;;;0.80;0.70;;;19.90;42.10;;;;;;5067883;28;20496;-73
2021/03/07 02:11:08;;;;;;;0.93;0.60;;;19.90;41.30;;;;;;5072620;28;20485;-73
2021/03/07 02:13:36;;;;;;;1.03;0.50;;;20.00;41.60;;;;;;5071419;28;20482;-72
2021/03/07 02:16:04;;;;;;;0.50;0.50;;;19.90;41.50;;;;;;5069480;27;21386;-72
2021/03/07 02:18:32;;;;;;;0.70;0.70;;;19.90;41.80;;;;;;5086932;27;20491;-73
2021/03/07 02:20:59;;;;;;;1.47;0.80;;;19.90;41.60;;;;;;5067868;28;20481;-73
2021/03/07 02:23:29;;;;;;;0.50;0.50;;;19.90;41.40;;;;;;5073141;28;20476;-72
2021/03/07 02:25:56;;;;;;;0.87;0.77;;;19.90;41.50;;;;;;5068881;28;20892;-72
2021/03/07 02:28:23;;;;;;;0.90;0.90;;;19.90;41.60;;;;;;5066866;28;20516;-72
2021/03/07 02:30:49;;;;;;;0.70;0.70;;;19.90;41.50;;;;;;5067837;28;20495;-72
2021/03/07 02:33:18;;;;;;;0.93;0.70;;;19.90;41.40;;;;;;5058221;28;20477;-73
2021/03/07 02:35:47;;;;;;;1.33;0.50;;;19.90;41.30;;;;;;5078051;27;20487;-73
2021/03/07 02:38:14;;;;;;;0.50;0.50;;;19.90;41.30;;;;;;5077178;27;20992;-73
2021/03/07 02:40:40;;;;;;;1.27;0.67;;;19.90;41.40;;;;;;5066907;28;20472;-72
2021/03/07 02:43:09;;;;;;;0.67;0.67;;;19.90;41.40;;;;;;5070802;28;20554;-72
2021/03/07 02:45:35;;;;;;;0.60;0.60;;;19.90;41.20;;;;;;5069153;28;20502;-73
2021/03/07 02:48:01;;;;;;;0.70;0.70;;;19.90;41.40;;;;;;5066456;28;20997;-72
2021/03/07 02:50:30;;;;;;;1.23;1.00;;;19.80;41.40;;;;;;5066252;28;20485;-73
2021/03/07 02:53:00;;;;;;;1.93;0.50;;;19.90;41.40;;;;;;5065197;28;20537;-72
2021/03/07 02:55:27;;;;;;;0.60;0.60;;;19.90;41.40;;;;;;5068295;28;21591;-72
2021/03/07 02:57:53;;;;;;;0.80;0.60;;;19.90;41.30;;;;;;5066380;28;20493;-73
2021/03/07 03:00:20;;;;;;;2.87;0.90;;;19.90;41.40;;;;;;5067674;28;22230;-72
2021/03/07 03:02:47;;;;;;;0.87;0.87;;;19.90;41.30;;;;;;5057188;28;20485;-73
2021/03/07 03:05:13;;;;;;;0.90;0.70;;;19.90;41.30;;;;;;5068630;28;21180;-72
2021/03/07 03:07:40;;;;;;;0.77;0.67;;;19.90;41.40;;;;;;5067290;28;20549;-72
2021/03/07 03:10:07;;;;;;;0.60;0.60;;;19.90;41.20;;;;;;5067146;28;20567;-72
2021/03/07 03:12:34;;;;;;;4.40;0.70;;;19.90;41.20;;;;;;5068406;28;20484;-73
2021/03/07 03:15:01;;;;;;;1.93;0.60;;;19.80;41.40;;;;;;5063919;28;20481;-73
2021/03/07 03:17:28;;;;;;;0.70;0.70;;;19.80;41.30;;;;;;5060889;28;20477;-73
2021/03/07 03:19:54;;;;;;;0.70;0.50;;;19.80;41.40;;;;;;5096128;28;20547;-73
2021/03/07 03:22:20;;;;;;;0.50;0.50;;;19.80;41.10;;;;;;5064771;28;20860;-73
2021/03/07 03:24:47;;;;;;;0.60;0.60;;;19.90;41.60;;;;;;5081153;27;20597;-73
2021/03/07 03:27:14;;;;;;;0.93;0.70;;;19.80;41.40;;;;;;5080113;27;20481;-73
2021/03/07 03:29:40;;;;;;;0.73;0.57;;;19.80;41.20;;;;;;5071094;28;20497;-72
2021/03/07 03:32:06;;;;;;;0.90;0.60;;;19.90;41.30;;;;;;5070209;28;20995;-73
2021/03/07 03:34:33;;;;;;;0.83;0.67;;;19.80;41.20;;;;;;5074382;28;20486;-72
2021/03/07 03:36:59;;;;;;;1.13;0.70;;;19.80;41.20;;;;;;5070633;27;20909;-73
2021/03/07 03:39:27;;;;;;;1.47;0.67;;;19.80;41.30;;;;;;5095617;27;20551;-73
2021/03/07 03:41:55;;;;;;;0.77;0.77;;;19.80;41.30;;;;;;5069880;28;20488;-73
2021/03/07 03:44:22;;;;;;;0.90;0.80;;;19.90;41.20;;;;;;5070111;28;20909;-73
2021/03/07 03:46:50;;;;;;;1.10;0.60;;;19.90;41.20;;;;;;5069366;28;20473;-72
2021/03/07 03:49:23;;;;;;;0.77;0.47;;;19.90;41.30;;;;;;5073326;27;20470;-73
2021/03/07 03:51:54;;;;;;;2.97;0.70;;;19.90;41.30;;;;;;5063340;28;20489;-72
2021/03/07 03:54:20;;;;;;;1.50;0.50;;;19.90;41.10;;;;;;5061048;28;20476;-72
2021/03/07 03:56:47;;;;;;;1.13;0.50;;;19.90;41.10;;;;;;5058392;28;21065;-73
2021/03/07 03:59:13;;;;;;;0.67;0.67;;;19.90;41.10;;;;;;5092806;27;20536;-73
2021/03/07 04:01:39;;;;;;;0.70;0.50;;;19.90;41.00;;;;;;5073430;28;20573;-72
2021/03/07 04:04:06;;;;;;;1.40;0.60;;;19.90;41.20;;;;;;5071398;28;20486;-72
2021/03/07 04:06:32;;;;;;;0.60;0.60;;;20.00;41.10;;;;;;5070697;28;20549;-73
2021/03/07 04:09:00;;;;;;;0.90;0.67;;;19.90;41.10;;;;;;5070447;28;20981;-73
2021/03/07 04:11:26;;;;;;;0.87;0.60;;;19.90;41.90;;;;;;5072137;28;20541;-73
2021/03/07 04:13:53;;;;;;;0.50;0.50;;;19.90;41.90;;;;;;5069428;28;20485;-73
2021/03/07 04:16:19;;;;;;;1.87;0.50;;;20.00;41.20;;;;;;5068983;28;20469;-72
2021/03/07 04:18:45;;;;;;;2.10;0.70;;;19.90;41.20;;;;;;5070863;28;20477;-72
2021/03/07 04:21:11;;;;;;;0.67;0.50;;;19.90;40.90;;;;;;5071136;28;20476;-73
2021/03/07 04:23:37;;;;;;;1.00;0.80;;;19.90;40.90;;;;;;5069296;28;20480;-72
2021/03/07 04:26:04;;;;;;;1.27;0.60;;;19.90;41.10;;;;;;5072032;28;20500;-72
2021/03/07 04:28:31;;;;;;;1.07;0.90;;;19.90;41.20;;;;;;5071970;28;20492;-72
2021/03/07 04:30:57;;;;;;;1.37;0.80;;;19.90;41.20;;;;;;5070413;28;20480;-72
2021/03/07 04:33:23;;;;;;;1.33;0.60;;;19.90;41.10;;;;;;5073006;28;20996;-71
2021/03/07 04:35:49;;;;;;;0.70;0.67;;;19.90;41.00;;;;;;5068575;28;20473;-72
2021/03/07 04:38:15;;;;;;;0.50;0.50;;;19.90;41.20;;;;;;5070351;28;20705;-72
2021/03/07 04:40:42;;;;;;;2.50;0.90;;;19.90;41.20;;;;;;5072040;28;20489;-72
2021/03/07 04:43:09;;;;;;;0.57;0.57;;;19.90;41.10;;;;;;5070106;28;20484;-72
2021/03/07 04:45:35;;;;;;;2.30;1.30;;;19.90;41.00;;;;;;5079049;27;20471;-72
2021/03/07 04:48:02;;;;;;;0.90;0.67;;;19.90;41.00;;;;;;5082503;27;20489;-72
2021/03/07 04:50:28;;;;;;;1.20;0.70;;;19.90;41.00;;;;;;5074158;28;20491;-72
2021/03/07 04:52:54;;;;;;;1.33;0.63;;;19.90;41.00;;;;;;5068097;28;20508;-71
2021/03/07 04:55:20;;;;;;;0.50;0.50;;;19.90;41.00;;;;;;5070540;28;20489;-71
2021/03/07 04:57:47;;;;;;;1.50;0.60;;;19.90;40.80;;;;;;5074473;28;20490;-72
2021/03/07 05:00:15;;;;;;;0.80;0.50;;;19.80;40.90;;;;;;5069303;28;21004;-72
2021/03/07 05:02:42;;;;;;;0.70;0.60;;;19.80;40.90;;;;;;5071726;28;20530;-72
2021/03/07 05:05:08;;;;;;;0.60;0.60;;;19.80;40.90;;;;;;5066413;27;20890;-72
2021/03/07 05:07:35;;;;;;;1.00;0.70;;;19.80;41.20;;;;;;5097165;27;20956;-72
2021/03/07 05:10:01;;;;;;;0.70;0.60;;;19.80;41.00;;;;;;5068923;28;20481;-72
2021/03/07 05:12:27;;;;;;;0.60;0.60;;;19.80;41.00;;;;;;5071460;28;20478;-72
2021/03/07 05:14:53;;;;;;;0.60;0.50;;;19.80;40.90;;;;;;5067758;28;20477;-71
2021/03/07 05:17:23;;;;;;;0.80;0.63;;;19.80;41.00;;;;;;5070120;28;21563;-72
2021/03/07 05:19:49;;;;;;;2.03;0.87;;;19.80;41.00;;;;;;5062682;27;21110;-71
2021/03/07 05:22:16;;;;;;;0.83;0.80;;;19.80;41.10;;;;;;5078520;27;20482;-72
2021/03/07 05:24:42;;;;;;;0.80;0.60;;;19.80;41.00;;;;;;5069590;28;20875;-72
2021/03/07 05:27:08;;;;;;;0.60;0.60;;;19.80;41.00;;;;;;5069927;28;20485;-73
2021/03/07 05:29:34;;;;;;;1.80;0.40;;;19.80;41.10;;;;;;5069454;28;20476;-72
2021/03/07 05:32:01;;;;;;;1.03;0.70;;;19.80;41.20;;;;;;5068216;28;20625;-72
2021/03/07 05:34:28;;;;;;;0.50;0.50;;;19.80;41.20;;;;;;5072249;28;20493;-73
2021/03/07 05:36:54;;;;;;;0.83;0.60;;;19.80;41.20;;;;;;5069294;28;20492;-73
2021/03/07 05:39:21;;;;;;;0.50;0.50;;;19.80;41.20;;;;;;5068630;28;20482;-72
2021/03/07 05:41:47;;;;;;;0.80;0.70;;;19.80;41.20;;;;;;5070734;28;20475;-72
2021/03/07 05:44:13;;;;;;;1.17;0.50;;;19.70;41.20;;;;;;5067787;28;20468;-72
2021/03/07 05:46:39;;;;;;;0.60;0.60;;;19.70;41.00;;;;;;5066640;28;20484;-72
2021/03/07 05:49:06;;;;;;;0.50;0.50;;;19.70;41.20;;;;;;5069708;28;20484;-72
2021/03/07 05:51:33;;;;;;;1.23;0.70;;;19.70;41.30;;;;;;5071873;28;20538;-72
2021/03/07 05:53:59;;;;;;;0.70;0.70;;;19.60;41.30;;;;;;5062168;27;20497;-72
2021/03/07 05:56:25;;;;;;;0.70;0.50;;;19.60;41.30;;;;;;5101604;27;20492;-71
2021/03/07 05:58:52;;;;;;;0.70;0.70;;;19.60;41.50;;;;;;5069128;27;20490;-72
2021/03/07 06:01:18;;;;;;;1.77;0.70;;;19.60;41.40;;;;;;5069171;28;20558;-71
2021/03/07 06:03:44;;;;;;;0.70;0.70;;;19.60;41.30;;;;;;5067897;28;20491;-73
2021/03/07 06:06:10;;;;;;;0.67;0.67;;;19.60;41.40;;;;;;5067768;28;21008;-72
2021/03/07 06:08:37;;;;;;;0.60;0.60;;;19.60;41.30;;;;;;5069542;28;20507;-71
2021/03/07 06:11:04;;;;;;;1.90;0.50;;;19.60;41.30;;;;;;5069347;28;20477;-72
2021/03/07 06:13:37;;;;;;;1.63;0.70;;;19.70;41.20;;;;;;5069647;28;20482;-72
2021/03/07 06:16:07;;;;;;;0.63;0.63;;;19.70;41.00;;;;;;5066942;28;20488;-72
2021/03/07 06:18:39;;;;;;;0.70;0.70;;;19.80;40.80;;;;;;5069572;28;20477;-73
2021/03/07 06:21:09;;;;;;;0.50;0.50;;;19.80;40.70;;;;;;5091346;27;21022;-72
2021/03/07 06:23:36;;;;;;;0.70;0.70;;;19.90;40.60;;;;;;5065660;28;20478;-72
2021/03/07 06:26:09;;;;;;;0.50;0.50;;;19.90;40.40;;;;;;5070575;28;20488;-72
2021/03/07 06:28:35;;;;;;;0.50;0.50;;;19.90;40.30;;;;;;5067521;28;20481;-72
2021/03/07 06:31:01;;;;;;;0.93;0.60;;;20.00;40.40;;;;;;5067734;28;20474;-72
2021/03/07 06:33:29;;;;;;;2.40;0.70;;;20.00;40.40;;;;;;5066673;28;20487;-72
2021/03/07 06:36:17;;;;;;;0.70;0.70;;;20.00;40.20;;;;;;5066682;28;20485;-72
2021/03/07 06:38:45;;;;;;;1.27;0.70;;;20.10;40.40;;;;;;5066521;28;20492;-73
2021/03/07 06:41:15;;;;;;;0.60;0.60;;;20.10;40.30;;;;;;5070067;28;20507;-72
2021/03/07 06:43:41;;;;;;;2.20;0.90;;;20.10;40.30;;;;;;5066213;28;20492;-72
2021/03/07 06:46:07;;;;;;;0.80;0.60;;;20.10;40.20;;;;;;5071259;28;20856;-72
2021/03/07 06:48:36;;;;;;;0.63;0.63;;;20.10;40.20;;;;;;5068701;28;20473;-72
2021/03/07 06:51:02;;;;;;;1.17;0.90;;;20.00;40.80;;;;;;5071465;28;20491;-72
2021/03/07 06:53:32;;;;;;;0.73;0.60;;;20.00;40.20;;;;;;5068985;28;20542;-72
2021/03/07 06:55:59;;;;;;;0.60;0.57;;;20.00;40.10;;;;;;5070173;28;20485;-72
2021/03/07 06:58:25;;;;;;;1.37;0.83;;;20.00;40.00;;;;;;5076869;27;20513;-72
2021/03/07 07:00:51;;;;;;;1.27;0.80;;;20.00;40.00;;;;;;5085123;27;20996;-72
2021/03/07 07:03:18;;;;;;;0.63;0.63;;;20.00;40.00;;;;;;5070083;28;20503;-73
2021/03/07 07:05:45;;;;;;;1.00;0.90;;;20.00;40.00;;;;;;5067566;28;20896;-72
2021/03/07 07:08:12;;;;;;;0.60;0.60;;;20.00;39.90;;;;;;5067180;28;20481;-72
2021/03/07 07:10:59;;;;;;;0.50;0.50;;;20.00;39.80;;;;;;5068046;28;20488;-72
2021/03/07 07:13:26;;;;;;;0.53;0.53;;;20.00;39.80;;;;;;5080104;27;20473;-72
2021/03/07 07:15:59;;;;;;;2.50;0.60;;;20.00;39.70;;;;;;5064491;28;20488;-73
2021/03/07 07:18:26;;;;;;;0.60;0.60;;;20.00;39.70;;;;;;5069027;28;20505;-72
2021/03/07 07:20:52;;;;;;;0.80;0.80;;;20.10;40.10;;;;;;5067141;28;20493;-71
2021/03/07 07:23:19;;;;;;;1.93;0.80;;;20.10;40.00;;;;;;5055384;28;20468;-72
2021/03/07 07:25:45;;;;;;;0.97;0.70;;;20.10;39.70;;;;;;5064171;28;20481;-72
2021/03/07 07:28:12;;;;;;;1.53;0.60;;;20.10;39.80;;;;;;5069035;28;20818;-72
2021/03/07 07:30:38;;;;;;;0.60;0.60;;;20.10;39.70;;;;;;5061275;28;20562;-72
2021/03/07 07:33:05;;;;;;;0.93;0.50;;;20.10;39.70;;;;;;5095722;27;20481;-72
2021/03/07 07:35:31;;;;;;;0.60;0.60;;;20.10;39.50;;;;;;5066815;28;20563;-72
2021/03/07 07:38:00;;;;;;;0.80;0.70;;;20.10;39.40;;;;;;5067787;28;20495;-71
2021/03/07 07:40:33;;;;;;;0.90;0.90;;;20.10;39.40;;;;;;5068710;28;20484;-74
2021/03/07 07:42:59;;;;;;;0.80;0.70;;;20.10;39.30;;;;;;5070682;28;20512;-72
2021/03/07 07:45:26;;;;;;;1.70;0.80;;;20.10;39.30;;;;;;5067795;28;20864;-72
2021/03/07 07:47:53;;;;;;;1.50;0.83;;;20.10;39.30;;;;;;5067658;28;20486;-72
2021/03/07 07:50:34;;;;;;;1.23;0.90;;;20.10;39.30;;;;;;5069192;28;20477;-72
2021/03/07 07:53:00;;;;;;;0.77;0.77;;;20.10;39.20;;;;;;5067461;28;20557;-72
2021/03/07 07:55:41;;;;;;;0.90;0.70;;;20.10;39.20;;;;;;5068235;28;20493;-72
2021/03/07 07:58:07;;;;;;;1.70;0.90;;;20.10;39.10;;;;;;5064940;28;20477;-72
2021/03/07 08:00:48;;;;;;;0.80;0.80;;;20.10;38.90;;;;;;5069201;28;20484;-72
2021/03/07 08:03:33;;;;;;;4.87;0.70;;;20.10;38.90;;;;;;5068015;28;20992;-72
2021/03/07 08:06:00;;;;;;;1.23;0.77;;;20.10;39.00;;;;;;5059493;28;20477;-72
2021/03/07 08:08:30;;;;;;;2.10;0.80;;;20.10;38.90;;;;;;5098508;28;20485;-72
2021/03/07 08:10:57;;;;;;;1.60;0.70;;;20.10;39.20;;;;;;5070072;28;20488;-73
2021/03/07 08:13:42;;;;;;;0.60;0.60;;;20.10;39.30;;;;;;5071188;28;20481;-72
2021/03/07 08:16:09;;;;;;;0.67;0.67;;;20.10;39.20;;;;;;5073644;28;20477;-72
2021/03/07 08:18:46;;;;;;;1.90;1.00;;;20.10;39.20;;;;;;5072701;28;20487;-73
2021/03/07 08:21:12;;;;;;;1.17;0.90;;;20.20;39.10;;;;;;5070164;28;20484;-72
2021/03/07 08:24:01;;;;;;;0.70;0.60;;;20.20;39.10;;;;;;5067871;28;21107;-73
2021/03/07 08:26:49;;;;;;;1.70;0.77;;;20.20;39.00;;;;;;5079246;27;21058;-71
2021/03/07 08:29:43;;;;;;;1.70;0.67;;;20.10;38.80;;;;;;5091932;27;20558;-72
2021/03/07 08:32:41;;;;;;;2.00;0.80;;;20.10;38.80;;;;;;5073499;27;20477;-72
2021/03/07 08:35:12;;;;;;;1.20;0.70;;;20.10;38.80;;;;;;5008930;28;20517;-72
2021/03/07 08:37:38;;;;;;;0.70;0.70;;;20.10;38.70;;;;;;5057129;28;20562;-71
2021/03/07 08:40:26;;;;;;;0.97;0.60;;;20.10;38.70;;;;;;5070212;28;20477;-72
2021/03/07 08:42:52;;;;;;;1.57;0.90;;;20.10;38.50;;;;;;5048092;28;21364;-73
2021/03/07 08:45:19;;;;;;;0.93;0.63;;;20.10;38.60;;;;;;5073026;28;20481;-72
2021/03/07 08:47:56;;;;;;;2.13;0.90;;;20.10;38.40;;;;;;5092123;27;20523;-72
2021/03/07 08:50:22;;;;;;;1.40;0.90;;;20.10;38.70;;;;;;5060174;28;20570;-72
2021/03/07 08:52:49;;;;;;;5.70;0.80;;;20.10;38.60;;;;;;5061442;28;20469;-72
2021/03/07 08:55:15;;;;;;;1.87;0.57;;;20.10;38.40;;;;;;5068409;28;20473;-72
2021/03/07 08:57:48;;;;;;;0.70;0.67;;;20.10;38.40;;;;;;5064838;27;20545;-73
2021/03/07 09:00:16;;;;;;;0.97;0.90;;;20.10;38.30;;;;;;5099639;27;20473;-73
2021/03/07 09:02:43;;;;;;;1.93;0.70;;;20.10;38.60;;;;;;5072494;28;20476;-72
2021/03/07 09:05:26;;;;;;;2.00;0.80;;;20.10;38.70;;;;;;5071584;28;21035;-72
2021/03/07 09:07:58;;;;;;;1.40;1.30;;;20.10;38.80;;;;;;5059120;28;21000;-73
2021/03/07 09:10:30;;;;;;;2.30;1.03;;;20.10;39.00;;;;;;5069448;28;20481;-72
2021/03/07 09:12:59;;;;;;;0.83;0.83;;;20.10;38.90;;;;;;5084617;27;20483;-73
2021/03/07 09:15:26;;;;;;;0.87;0.70;;;20.20;38.80;;;;;;5073303;27;20477;-73
2021/03/07 09:17:52;;;;;;;1.10;0.70;;;20.20;38.70;;;;;;5075955;27;20482;-73
2021/03/07 09:20:19;;;;;;;1.33;0.90;;;20.20;38.60;;;;;;5068187;28;20461;-73
2021/03/07 09:22:45;;;;;;;1.17;0.80;;;20.20;38.50;;;;;;5068297;28;20489;-73
2021/03/07 09:25:15;;;;;;;0.60;0.60;;;20.20;38.40;;;;;;5069893;28;20530;-72
2021/03/07 09:27:42;;;;;;;0.60;0.60;;;20.20;38.40;;;;;;5071213;28;20595;-72
2021/03/07 09:30:10;;;;;;;2.10;0.60;;;20.20;38.80;;;;;;5071777;28;20481;-72
2021/03/07 09:32:40;;;;;;;2.83;1.00;;;20.20;38.80;;;;;;5071475;27;20482;-72
2021/03/07 09:35:21;;;;;;;1.23;0.63;;;20.10;38.50;;;;;;5090368;27;20480;-74
2021/03/07 09:37:57;;;;;;;1.47;0.80;;;20.10;38.60;;;;;;5065634;28;20473;-72
2021/03/07 09:40:24;;;;;;;1.53;1.10;;;20.10;38.50;;;;;;5062102;28;20492;-73
2021/03/07 09:42:54;;;;;;;1.67;1.00;;;20.10;38.10;;;;;;5070746;28;20553;-72
2021/03/07 09:45:21;;;;;;;0.80;0.80;;;20.10;38.50;;;;;;5071195;28;20980;-73
2021/03/07 09:47:47;;;;;;;2.10;1.10;;;20.10;38.40;;;;;;5080923;27;21013;-72
2021/03/07 09:50:14;;;;;;;4.33;0.70;;;20.10;38.60;;;;;;5081151;27;20487;-71
2021/03/07 09:52:42;;;;;;;0.60;0.60;;;20.10;38.70;;;;;;5069851;28;20537;-72
2021/03/07 09:55:09;;;;;;;0.87;0.87;;;20.10;39.70;;;;;;5069449;27;20487;-72
2021/03/07 09:57:37;;;;;;;1.83;0.70;;;20.00;38.80;;;;;;5088960;27;20473;-72
2021/03/07 10:00:04;;;;;;;1.43;0.63;;;20.10;39.20;;;;;;5070786;28;20485;-72
2021/03/07 10:02:34;;;;;;;1.10;1.00;;;20.10;38.90;;;;;;5067689;28;20487;-72
2021/03/07 10:05:10;;;;;;;2.13;0.60;;;20.10;38.70;;;;;;5068853;28;20472;-71
2021/03/07 10:07:36;;;;;;;0.77;0.70;;;20.10;38.80;;;;;;5081272;27;20534;-72
2021/03/07 10:10:06;;;;;;;0.80;0.80;;;20.10;38.80;;;;;;5070442;28;20843;-72
2021/03/07 10:12:39;;;;;;;2.87;1.00;;;20.10;38.90;;;;;;5070993;28;20527;-72
2021/03/07 10:15:06;;;;;;;0.67;0.67;;;20.00;39.20;;;;;;5067110;28;20481;-72
2021/03/07 10:17:36;;;;;;;0.70;0.70;;;20.00;39.00;;;;;;5069590;28;20485;-72
2021/03/07 10:20:05;;;;;;;2.73;0.70;;;20.00;38.60;;;;;;5067285;28;20519;-72
2021/03/07 10:22:36;;;;;;;0.83;0.70;;;20.00;38.60;;;;;;5069504;28;21502;-71
2021/03/07 10:25:04;;;;;;;2.10;1.10;;;20.00;39.00;;;;;;5068488;27;20486;-71
2021/03/07 10:27:31;;;;;;;1.30;0.73;;;20.00;39.00;;;;;;5089464;27;20469;-72
2021/03/07 10:29:57;;;;;;;2.77;1.17;;;20.00;38.70;;;;;;5065900;28;20477;-72
2021/03/07 10:32:23;;;;;;;0.93;0.90;;;20.00;38.90;;;;;;5067995;28;21445;-72
2021/03/07 10:34:50;;;;;;;0.90;0.90;;;20.00;38.80;;;;;;5068514;28;20522;-72
2021/03/07 10:37:38;;;;;;;3.57;1.73;;;20.00;39.70;;;;;;5067820;28;20473;-72
2021/03/07 10:40:07;;;;;;;0.73;0.73;;;20.00;38.90;;;;;;5091528;27;20480;-72
2021/03/07 10:42:34;;;;;;;0.77;0.67;;;20.00;38.90;;;;;;5060917;28;20534;-72
2021/03/07 10:45:17;;;;;;;0.83;0.83;;;20.00;38.90;;;;;;5097058;27;20481;-72
2021/03/07 10:47:43;;;;;;;0.77;0.70;;;20.00;39.10;;;;;;5065415;28;20485;-72
2021/03/07 10:50:10;;;;;;;3.07;1.50;;;20.00;39.20;;;;;;5066980;28;20953;-72
2021/03/07 10:52:36;;;;;;;1.30;0.93;;;20.00;39.20;;;;;;5068700;28;20976;-71
2021/03/07 10:55:13;;;;;;;0.80;0.80;;;20.10;39.10;;;;;;5069200;28;21004;-72
2021/03/07 10:57:39;;;;;;;2.20;0.93;;;20.10;39.00;;;;;;5065955;28;20484;-72
2021/03/07 11:00:07;;;;;;;0.67;0.67;;;20.10;38.70;;;;;;5069318;28;20500;-72
2021/03/07 11:02:33;;;;;;;0.80;0.80;;;20.10;38.80;;;;;;5067643;28;20519;-72
2021/03/07 11:04:59;;;;;;;1.03;0.77;;;20.10;38.90;;;;;;5067744;28;21004;-72
2021/03/07 11:07:25;;;;;;;0.80;0.80;;;20.10;38.80;;;;;;5070286;27;20491;-72
2021/03/07 11:09:52;;;;;;;1.63;0.83;;;20.10;38.90;;;;;;5089382;27;21131;-72
2021/03/07 11:12:19;;;;;;;0.70;0.67;;;20.10;38.90;;;;;;5070127;28;20493;-71
2021/03/07 11:14:45;;;;;;;1.90;0.83;;;20.10;39.10;;;;;;5072576;28;20494;-71
2021/03/07 11:17:11;;;;;;;1.20;1.13;;;20.10;38.70;;;;;;5084943;28;20497;-72
2021/03/07 11:19:37;;;;;;;1.00;0.90;;;20.10;38.80;;;;;;5069381;28;20492;-71
2021/03/07 11:22:04;;;;;;;1.67;0.90;;;20.10;38.40;;;;;;5066405;28;20489;-72
2021/03/07 11:24:30;;;;;;;1.07;0.90;;;20.10;38.50;;;;;;5067343;28;20490;-72
2021/03/07 11:26:56;;;;;;;2.03;0.63;;;20.00;38.90;;;;;;5066516;28;20492;-72
2021/03/07 11:29:23;;;;;;;1.27;0.80;;;20.10;39.10;;;;;;5070377;28;21651;-72
2021/03/07 11:31:50;;;;;;;1.83;0.80;;;20.10;38.70;;;;;;5065719;28;20969;-71
2021/03/07 11:34:16;;;;;;;1.43;1.00;;;20.10;38.80;;;;;;5088634;27;20490;-71
2021/03/07 11:36:42;;;;;;;0.83;0.80;;;20.10;38.60;;;;;;5071390;28;20500;-72
2021/03/07 11:39:08;;;;;;;0.60;0.60;;;20.10;39.20;;;;;;5060532;28;20546;-72
2021/03/07 11:41:34;;;;;;;2.40;1.10;;;20.20;38.70;;;;;;5099407;27;20476;-72
2021/03/07 11:44:01;;;;;;;1.23;0.90;;;20.10;38.60;;;;;;5068002;28;21059;-72
2021/03/07 11:46:28;;;;;;;1.80;0.80;;;20.10;38.80;;;;;;5069825;28;20488;-73
2021/03/07 11:48:54;;;;;;;1.00;0.63;;;20.10;38.90;;;;;;5074186;28;20490;-72
2021/03/07 11:51:20;;;;;;;1.27;0.97;;;20.10;39.00;;;;;;5072040;28;21032;-72
2021/03/07 11:53:46;;;;;;;1.10;0.77;;;20.10;38.80;;;;;;5072705;28;20542;-72
2021/03/07 11:56:12;;;;;;;3.60;1.30;;;20.10;38.70;;;;;;5070886;28;20468;-72
2021/03/07 11:58:39;;;;;;;1.43;0.63;;;20.10;38.80;;;;;;5082446;27;21342;-72
2021/03/07 12:01:05;;;;;;;1.23;1.10;;;20.10;39.30;;;;;;5086976;27;20549;-72
2021/03/07 12:03:32;;;;;;;0.90;0.90;;;20.10;39.40;;;;;;5071728;28;21012;-72
2021/03/07 12:05:58;;;;;;;1.70;0.87;;;20.10;39.20;;;;;;5071095;28;20481;-72
2021/03/07 12:08:24;;;;;;;4.87;1.47;;;20.10;39.20;;;;;;5072017;28;20503;-72
2021/03/07 12:10:50;;;;;;;1.23;0.87;;;20.10;39.00;;;;;;5071319;28;20476;-72
2021/03/07 12:13:17;;;;;;;1.67;1.03;;;20.10;39.00;;;;;;5073482;27;20970;-72
2021/03/07 12:15:43;;;;;;;3.13;1.00;;;20.10;39.00;;;;;;5088159;27;20485;-72
2021/03/07 12:18:09;;;;;;;0.90;0.90;;;20.00;39.00;;;;;;5071799;28;20486;-72
2021/03/07 12:20:36;;;;;;;0.90;0.90;;;20.00;39.00;;;;;;5071891;28;20477;-73
2021/03/07 12:23:03;;;;;;;1.00;0.90;;;20.00;39.20;;;;;;5069812;28;20480;-72
2021/03/07 12:25:29;;;;;;;1.30;1.30;;;20.00;39.10;;;;;;5072475;28;20487;-73
2021/03/07 12:27:55;;;;;;;1.67;1.30;;;20.00;39.10;;;;;;5084927;27;20487;-72
2021/03/07 12:30:22;;;;;;;2.30;1.40;;;20.00;38.90;;;;;;5079633;27;20476;-73
2021/03/07 12:32:48;;;;;;;1.07;1.07;;;20.00;38.80;;;;;;5069706;28;20476;-73
2021/03/07 12:35:15;;;;;;;2.90;1.20;;;20.00;38.80;;;;;;5071397;28;21053;-72
2021/03/07 12:37:42;;;;;;;1.20;1.10;;;20.00;38.90;;;;;;5069725;28;20484;-73
2021/03/07 12:40:09;;;;;;;2.20;1.53;;;20.00;38.80;;;;;;5072132;28;20499;-73
2021/03/07 12:42:35;;;;;;;2.60;1.13;;;20.00;38.70;;;;;;5094576;27;20479;-72
2021/03/07 12:45:01;;;;;;;2.07;1.80;;;20.00;38.80;;;;;;5070200;28;20478;-72
2021/03/07 12:47:27;;;;;;;3.33;1.40;;;20.00;38.80;;;;;;5071013;28;20496;-72
2021/03/07 12:49:54;;;;;;;0.90;0.90;;;20.00;39.40;;;;;;5075624;27;20479;-73
2021/03/07 12:52:20;;;;;;;1.33;1.10;;;20.00;39.40;;;;;;5086742;27;20484;-72